Data for 03/20/2013

Time Sea-Level Adjusted Pressure Absolute Pressure Temperature Relative Humidity Dew Point   
(mb) (inHg) (mb) (inHg) (C) (F) (%) (C) (F)
00:05 1018 30.06 847 25.01 0 32 30 -15.8 3.6
00:10 1018 30.06 847 25.01 0 32 29 -16.1 3.1
00:15 1018 30.06 847 25.01 0.2 32.3 28 -16.1 3
00:20 1018 30.06 847 25.01 0.3 32.5 27 -16.5 2.3
00:25 1018 30.06 847 25.01 0.5 32.9 27 -16.3 2.6
00:30 1018 30.06 847 25.01 0.5 32.9 27 -16.4 2.4
00:35 1017 30.03 847 25.01 0.7 33.3 26 -16.6 2.2
00:40 1017 30.03 847 25.01 0.8 33.4 26 -16.5 2.4
00:45 1017 30.03 847 25.01 0.7 33.3 28 -16.1 3.1
00:50 1017 30.03 847 25.01 0.6 33.1 27 -16.2 2.9
00:55 1017 30.03 846 24.98 0.5 33 28 -15.9 3.3
01:00 1017 30.03 846 24.98 0.5 32.8 28 -16.1 3.1
01:05 1017 30.03 846 24.98 0.4 32.8 28 -15.9 3.4
01:10 1017 30.03 846 24.98 0.3 32.6 28 -16.1 3
01:15 1017 30.03 846 24.98 0.4 32.7 28 -16.3 2.6
01:20 1017 30.03 846 24.98 0.4 32.7 28 -16.1 3
01:25 1017 30.03 846 24.98 0.2 32.4 29 -15.9 3.4
01:30 1016 30 846 24.98 0.1 32.1 29 -16.1 3.1
01:35 1016 30 846 24.98 0.1 32.2 28 -16.3 2.6
01:40 1016 30 846 24.98 0.2 32.4 28 -16.3 2.7
01:45 1016 30 845 24.95 0.2 32.3 28 -16.2 2.8
01:50 1016 30 845 24.95 0.1 32.2 29 -16.2 2.9
01:55 1016 30 845 24.95 0.1 32.2 28 -16.4 2.6
02:00 1016 30 845 24.95 0.2 32.4 28 -16.2 2.8
02:05 1016 30 845 24.95 0.3 32.6 27 -16.6 2.1
02:10 1016 30 845 24.95 0.5 33 27 -16.7 2
02:15 1016 30 845 24.95 0.7 33.3 26 -16.9 1.6
02:20 1016 30 845 24.95 0.9 33.6 26 -16.5 2.2
02:25 1016 30 845 24.95 0.9 33.6 26 -16.8 1.7
02:30 1016 30 845 24.95 0.9 33.6 26 -16.5 2.4
02:35 1016 30 845 24.95 0.7 33.3 27 -16.4 2.5
02:40 1016 30 845 24.95 0.6 33 27 -16.2 2.8
02:45 1015 29.97 845 24.95 0.5 33 27 -16.6 2.2
02:50 1015 29.97 845 24.95 0.6 33.1 27 -16.3 2.6
02:55 1015 29.97 844 24.92 0.6 33.2 27 -16.2 2.8
03:00 1015 29.97 844 24.92 0.6 33 28 -15.9 3.5
03:05 1015 29.97 844 24.92 0.6 33 28 -15.8 3.6
03:10 1015 29.97 844 24.92 0.5 32.9 29 -15.8 3.6
03:15 1015 29.97 844 24.92 0.5 32.9 28 -15.8 3.5
03:20 1015 29.97 844 24.92 0.5 32.9 29 -15.6 4
03:25 1015 29.97 844 24.92 0.6 33 29 -15.6 4
03:30 1015 29.97 844 24.92 0.7 33.2 29 -15.5 4
03:35 1015 29.97 844 24.92 0.9 33.7 28 -15.7 3.7
03:40 1015 29.97 844 24.92 1.2 34.1 28 -15.4 4.2
03:45 1014 29.94 844 24.92 1.2 34.2 28 -15.6 3.9
03:50 1014 29.94 843 24.89 1.4 34.5 28 -15.4 4.3
03:55 1014 29.94 843 24.89 1.4 34.6 28 -15.3 4.5
04:00 1014 29.94 843 24.89 1.5 34.8 28 -15.2 4.7
04:05 1014 29.94 843 24.89 1.7 35 28 -15 5
04:10 1014 29.94 843 24.89 1.8 35.2 28 -14.8 5.3
04:15 1014 29.94 843 24.89 1.8 35.3 29 -14.6 5.7
04:20 1014 29.94 843 24.89 1.9 35.3 29 -14.5 5.8
04:25 1014 29.94 843 24.89 1.9 35.5 29 -14.4 6.1
04:30 1013 29.91 843 24.89 2 35.5 29 -14.4 6.2
04:35 1013 29.91 843 24.89 2.1 35.7 29 -14.1 6.7
04:40 1013 29.91 843 24.89 2.1 35.7 29 -14.2 6.5
04:45 1013 29.91 843 24.89 2.2 36 29 -14 6.7
04:50 1013 29.91 843 24.89 2.3 36.2 29 -13.9 7
04:55 1013 29.91 843 24.89 2.2 36 30 -13.5 7.6
05:00 1013 29.91 843 24.89 2.2 36 30 -13.8 7.2
05:05 1013 29.91 842 24.86 2.5 36.6 29 -13.9 7
05:10 1013 29.91 843 24.89 2.7 36.8 29 -13.7 7.4
05:15 1013 29.91 842 24.86 2.7 36.9 29 -13.6 7.5
05:20 1013 29.91 842 24.86 2.6 36.7 30 -13.3 8.1
05:25 1013 29.91 842 24.86 2.6 36.6 30 -13.3 8
05:30 1013 29.91 842 24.86 2.6 36.6 32 -12.6 9.4
05:35 1013 29.91 842 24.86 2.3 36.1 31 -13.3 8.1
05:40 1013 29.91 842 24.86 2.3 36.2 30 -13.5 7.8
05:45 1013 29.91 842 24.86 2.6 36.6 30 -13.4 7.9
05:50 1013 29.91 842 24.86 2.7 36.9 29 -13.5 7.7
05:55 1013 29.91 842 24.86 2.9 37.2 29 -13.4 7.9
06:00 1013 29.91 842 24.86 2.9 37.1 29 -13.4 7.8
06:05 1013 29.91 842 24.86 2.8 37.1 30 -13.3 8.1
06:10 1013 29.91 842 24.86 2.9 37.3 29 -13.6 7.5
06:15 1013 29.91 842 24.86 3 37.4 30 -13 8.6
06:20 1013 29.91 842 24.86 2.8 37.1 31 -12.9 8.8
06:25 1013 29.91 842 24.86 3 37.3 30 -12.8 8.9
06:30 1013 29.91 842 24.86 3 37.5 29 -13.3 8
06:35 1013 29.91 842 24.86 3.1 37.6 30 -12.8 9
06:40 1013 29.91 842 24.86 3.1 37.6 29 -13.2 8.2
06:45 1013 29.91 842 24.86 3.3 38 29 -13.1 8.4
06:50 1013 29.91 842 24.86 3.4 38 30 -12.6 9.3
06:55 1013 29.91 842 24.86 3.3 37.9 32 -12 10.4
07:00 1013 29.91 842 24.86 3.2 37.8 32 -11.8 10.7
07:05 1013 29.91 842 24.86 3 37.4 33 -11.8 10.8
07:10 1013 29.91 842 24.86 3.1 37.7 33 -11.7 10.9
07:15 1012 29.88 842 24.86 3.3 38 31 -12.2 10.1
07:20 1012 29.88 842 24.86 3.5 38.2 31 -12.2 10
07:25 1012 29.88 842 24.86 3.4 38.2 32 -11.7 10.9
07:30 1012 29.88 841 24.83 3.2 37.8 33 -11.5 11.3
07:35 1012 29.88 841 24.83 3.1 37.6 34 -11.4 11.4
07:40 1012 29.88 841 24.83 3.1 37.7 33 -11.8 10.8
07:45 1012 29.88 841 24.83 3.2 37.8 32 -11.9 10.6
07:50 1012 29.88 841 24.83 3.4 38 35 -10.9 12.4
07:55 1012 29.88 841 24.83 3.7 38.6 33 -11.2 11.8
08:00 1012 29.88 841 24.83 3.6 38.6 33 -11.2 11.9
08:05 1012 29.88 841 24.83 3.7 38.6 34 -10.8 12.6
08:10 1012 29.88 841 24.83 3.7 38.7 36 -10.2 13.7
08:15 1012 29.88 841 24.83 3.9 39.1 36 -9.8 14.4
08:20 1012 29.88 841 24.83 3.9 39.1 38 -9.1 15.6
08:25 1012 29.88 841 24.83 3.9 39 41 -8.1 17.4
08:30 1012 29.88 841 24.83 3.8 38.8 44 -7.4 18.6
08:35 1012 29.88 841 24.83 3.7 38.7 45 -7.2 19.1
08:40 1012 29.88 841 24.83 3.7 38.6 45 -7.1 19.3
08:45 1012 29.88 841 24.83 3.8 38.8 46 -6.9 19.6
08:50 1012 29.88 841 24.83 3.8 38.8 46 -6.7 19.9
08:55 1012 29.88 841 24.83 3.7 38.7 47 -6.6 20
09:00 1012 29.88 841 24.83 3.7 38.6 48 -6.4 20.4
09:05 1012 29.88 841 24.83 3.6 38.6 48 -6.3 20.7
09:10 1012 29.88 841 24.83 3.6 38.5 49 -6.1 21
09:15 1012 29.88 841 24.83 3.6 38.4 50 -5.9 21.4
09:20 1012 29.88 841 24.83 3.6 38.4 51 -5.7 21.7
09:25 1012 29.88 841 24.83 3.6 38.4 50 -5.8 21.6
09:30 1012 29.88 841 24.83 3.6 38.5 51 -5.6 22
09:35 1012 29.88 841 24.83 3.7 38.6 52 -5.4 22.3
09:40 1012 29.88 841 24.83 3.7 38.7 52 -5.1 22.8
09:45 1012 29.88 841 24.83 3.7 38.6 60 -3.4 25.8
09:50 1012 29.88 841 24.83 3.6 38.4 66 -2.2 28
09:55 1012 29.88 841 24.83 3.3 38 69 -1.8 28.8
10:00 1012 29.88 841 24.83 3.3 37.9 70 -1.6 29.1
10:05 1012 29.88 841 24.83 3.5 38.3 69 -1.7 28.9
10:10 1012 29.88 841 24.83 3.6 38.5 70 -1.4 29.4
10:15 1012 29.88 841 24.83 3.4 38.2 72 -1.1 30
10:20 1011 29.85 841 24.83 3.4 38.2 73 -1 30.2
10:25 1011 29.85 841 24.83 3.5 38.3 72 -1 30.1
10:30 1011 29.85 841 24.83 4 39.1 71 -0.9 30.4
10:35 1011 29.85 841 24.83 4.1 39.3 72 -0.6 31
10:40 1011 29.85 840 24.81 3.5 38.4 75 -0.5 31.1
10:45 1011 29.85 840 24.81 3.7 38.6 72 -0.8 30.5
10:50 1011 29.85 840 24.81 4 39.3 71 -0.7 30.7
10:55 1011 29.85 840 24.81 4.3 39.7 70 -0.8 30.6
11:00 1011 29.85 840 24.81 4.4 39.8 68 -1.1 30.1
11:05 1011 29.85 840 24.81 4.3 39.8 69 -0.8 30.5
11:10 1011 29.85 840 24.81 4.5 40 67 -1.1 30
11:15 1011 29.85 840 24.81 4.5 40.2 65 -1.6 29.2
11:20 1011 29.85 840 24.81 4.9 40.8 62 -1.6 29
11:25 1011 29.85 840 24.81 5 41.1 63 -1.5 29.4
11:30 1011 29.85 840 24.81 5.1 41.1 61 -1.8 28.7
11:35 1011 29.85 840 24.81 5.1 41.2 61 -1.8 28.7
11:40 1011 29.85 840 24.81 5.2 41.4 60 -1.9 28.5
11:45 1011 29.85 840 24.81 5.4 41.7 58 -2.2 28
11:50 1011 29.85 840 24.81 5.6 42.1 58 -2 28.3
11:55 1011 29.85 840 24.81 6 42.9 53 -2.8 27
12:00 1011 29.85 840 24.81 6.3 43.4 53 -2.4 27.6
12:05 1010 29.83 840 24.81 6.6 43.9 53 -2.4 27.8
12:10 1010 29.83 840 24.81 7 44.6 52 -2.2 28
12:15 1010 29.83 839 24.78 7.4 45.4 50 -2.3 27.8
12:20 1010 29.83 839 24.78 7.6 45.8 49 -2.3 27.8
12:25 1010 29.83 839 24.78 7.9 46.2 49 -2.3 27.9
12:30 1010 29.83 839 24.78 7.6 45.7 49 -2.3 27.9
12:35 1010 29.83 839 24.78 7.4 45.3 48 -2.8 27
12:40 1010 29.83 839 24.78 7 44.6 50 -2.7 27.1
12:45 1010 29.83 839 24.78 7.1 44.7 49 -3 26.6
12:50 1010 29.83 839 24.78 7.5 45.5 47 -3 26.5
12:55 1010 29.83 839 24.78 7.9 46.2 47 -2.8 27
13:00 1010 29.83 839 24.78 8.1 46.6 46 -2.9 26.9
13:05 1010 29.83 839 24.78 8.3 46.9 46 -2.8 27
13:10 1010 29.83 839 24.78 9.1 48.5 42 -3 26.6
13:15 1010 29.83 839 24.78 9.8 49.7 40 -3 26.7
13:20 1009 29.8 839 24.78 10.1 50.1 41 -2.5 27.4
13:25 1009 29.8 839 24.78 9.1 48.5 45 -2.2 28.1
13:30 1009 29.8 839 24.78 8.4 47.2 46 -2.4 27.7
13:35 1009 29.8 838 24.75 8.9 47.9 44 -2.7 27.1
13:40 1009 29.8 838 24.75 8.3 46.9 45 -2.9 26.8
13:45 1009 29.8 838 24.75 9 48.1 41 -3.6 25.6
13:50 1009 29.8 838 24.75 9.1 48.4 44 -2.5 27.5
13:55 1009 29.8 838 24.75 9.3 48.7 42 -2.9 26.8
14:00 1008 29.77 838 24.75 9.4 49 40 -3.5 25.7
14:05 1008 29.77 838 24.75 9.7 49.5 40 -3.2 26.3
14:10 1008 29.77 837 24.72 9.8 49.7 39 -3.4 25.8
14:15 1008 29.77 837 24.72 10 50 39 -3.4 25.8
14:20 1008 29.77 837 24.72 9.8 49.6 39 -3.5 25.7
14:25 1008 29.77 837 24.72 10.4 50.8 36 -3.8 25.1
14:30 1008 29.77 837 24.72 10.3 50.6 39 -3.2 26.3
14:35 1008 29.77 837 24.72 10.2 50.4 37 -3.7 25.3
14:40 1008 29.77 837 24.72 10.1 50.2 38 -3.4 25.9
14:45 1008 29.77 837 24.72 10.5 50.9 37 -3.6 25.6
14:50 1008 29.77 837 24.72 10.7 51.3 36 -3.8 25.1
14:55 1007 29.74 837 24.72 11 51.7 35 -3.7 25.4
15:00 1007 29.74 837 24.72 11.1 52 34 -4.1 24.7
15:05 1007 29.74 837 24.72 10.9 51.6 35 -3.8 25.2
15:10 1007 29.74 837 24.72 10.7 51.2 37 -3.2 26.2
15:15 1007 29.74 836 24.69 10.3 50.6 38 -3.4 25.9
15:20 1007 29.74 836 24.69 10.3 50.5 37 -3.8 25.2
15:25 1007 29.74 836 24.69 10.4 50.7 38 -3.4 25.8
15:30 1007 29.74 836 24.69 10.7 51.3 36 -3.8 25.1
15:35 1007 29.74 836 24.69 10.9 51.6 35 -3.9 25
15:40 1007 29.74 836 24.69 10.8 51.5 35 -3.9 25
15:45 1007 29.74 836 24.69 11 51.8 35 -3.7 25.4
15:50 1007 29.74 836 24.69 11.2 52.2 34 -3.9 25
15:55 1007 29.74 836 24.69 11.3 52.3 34 -4 24.8
16:00 1007 29.74 836 24.69 11.4 52.5 34 -4 24.9
16:05 1007 29.74 836 24.69 11.4 52.5 34 -4 24.8
16:10 1007 29.74 836 24.69 11.6 52.8 33 -4.1 24.7
16:15 1007 29.74 836 24.69 11.7 53 34 -3.8 25.1
16:20 1006 29.71 836 24.69 11.8 53.3 34 -3.4 25.9
16:25 1006 29.71 835 24.66 11.6 52.8 33 -4 24.8
16:30 1006 29.71 835 24.66 11.4 52.6 34 -3.9 24.9
16:35 1006 29.71 835 24.66 11.5 52.6 34 -3.9 25.1
16:40 1006 29.71 835 24.66 11.6 52.8 34 -3.5 25.6
16:45 1006 29.71 835 24.66 11.5 52.8 35 -3.5 25.7
16:50 1006 29.71 835 24.66 11.6 52.8 35 -3.4 26
16:55 1006 29.71 835 24.66 11.4 52.5 35 -3.6 25.5
17:00 1006 29.71 835 24.66 11.4 52.4 33 -4.2 24.5
17:05 1006 29.71 835 24.66 11.2 52.2 35 -3.8 25.1
17:10 1006 29.71 835 24.66 11 51.7 37 -3 26.5
17:15 1006 29.71 835 24.66 10.7 51.3 36 -3.5 25.7
17:20 1006 29.71 835 24.66 10.8 51.5 35 -3.9 25.1
17:25 1006 29.71 835 24.66 10.9 51.6 36 -3.6 25.5
17:30 1005 29.68 835 24.66 10.9 51.6 35 -4 24.8
17:35 1005 29.68 835 24.66 10.8 51.4 35 -4 24.9
17:40 1005 29.68 835 24.66 10.7 51.2 37 -3.2 26.2
17:45 1005 29.68 835 24.66 10.2 50.4 38 -3.3 26
17:50 1005 29.68 835 24.66 10.1 50.1 37 -3.9 24.9
17:55 1005 29.68 834 24.63 10.1 50.1 38 -3.5 25.7
18:00 1005 29.68 834 24.63 9.8 49.6 39 -3.5 25.8
18:05 1005 29.68 834 24.63 9.5 49.2 40 -3.4 25.8
18:10 1005 29.68 834 24.63 9.1 48.4 43 -2.9 26.8
18:15 1005 29.68 834 24.63 8.8 47.9 43 -3.1 26.4
18:20 1005 29.68 834 24.63 8.8 47.8 41 -3.6 25.6
18:25 1005 29.68 834 24.63 8.7 47.7 42 -3.4 26
18:30 1005 29.68 834 24.63 8.7 47.7 41 -3.9 24.9
18:35 1005 29.68 834 24.63 8.7 47.7 42 -3.6 25.5
18:40 1005 29.68 834 24.63 8.5 47.4 42 -3.7 25.4
18:45 1005 29.68 834 24.63 8.3 46.9 43 -3.7 25.4
18:50 1005 29.68 834 24.63 8 46.4 44 -3.5 25.7
18:55 1005 29.68 834 24.63 7.9 46.1 44 -3.7 25.3
19:00 1005 29.68 834 24.63 7.8 46.1 44 -3.8 25.1
19:05 1005 29.68 834 24.63 8 46.3 43 -3.8 25.2
19:10 1005 29.68 834 24.63 7.8 46 44 -3.7 25.4
19:15 1005 29.68 834 24.63 7.9 46.2 42 -4.1 24.6
19:20 1005 29.68 834 24.63 8.2 46.7 42 -3.9 25
19:25 1005 29.68 834 24.63 8.1 46.6 42 -4.1 24.7
19:30 1005 29.68 834 24.63 8.1 46.6 42 -3.9 24.9
19:35 1005 29.68 834 24.63 7.9 46.3 43 -3.9 24.9
19:40 1005 29.68 834 24.63 7.8 46 43 -4.1 24.6
19:45 1005 29.68 834 24.63 7.7 45.8 42 -4.3 24.3
19:50 1005 29.68 834 24.63 7.5 45.5 43 -4.1 24.6
19:55 1005 29.68 834 24.63 7.3 45.2 43 -4.5 23.9
20:00 1005 29.68 834 24.63 7.5 45.5 43 -4.3 24.3
20:05 1005 29.68 834 24.63 7.3 45.1 44 -4.2 24.5
20:10 1005 29.68 834 24.63 7.3 45.2 41 -5.1 22.8
20:15 1005 29.68 834 24.63 7.8 46 41 -4.6 23.7
20:20 1005 29.68 834 24.63 7.6 45.7 42 -4.6 23.7
20:25 1005 29.68 834 24.63 7.5 45.5 42 -4.7 23.5
20:30 1005 29.68 834 24.63 7.4 45.3 41 -4.8 23.3
20:35 1004 29.65 834 24.63 7.4 45.2 42 -4.6 23.7
20:40 1004 29.65 834 24.63 7.3 45.2 41 -5.1 22.8
20:45 1004 29.65 834 24.63 7.5 45.5 41 -5 23.1
20:50 1004 29.65 834 24.63 7.5 45.5 41 -4.9 23.1
20:55 1004 29.65 834 24.63 7.5 45.4 41 -5 23.1
21:00 1004 29.65 833 24.6 7.6 45.7 40 -5.1 22.8
21:05 1004 29.65 833 24.6 7.8 46.1 39 -5.2 22.6
21:10 1004 29.65 833 24.6 8 46.4 40 -4.8 23.3
21:15 1004 29.65 833 24.6 7.8 46 40 -5 23.1
21:20 1004 29.65 833 24.6 7.5 45.5 40 -5.3 22.5
21:25 1004 29.65 833 24.6 7.7 45.8 41 -4.9 23.2
21:30 1004 29.65 833 24.6 7.7 45.8 41 -4.6 23.6
21:35 1004 29.65 833 24.6 7.5 45.5 43 -4.3 24.2
21:40 1004 29.65 833 24.6 7.5 45.6 41 -4.7 23.5
21:45 1004 29.65 833 24.6 7.6 45.7 41 -4.8 23.3
21:50 1004 29.65 833 24.6 7.7 45.9 41 -4.8 23.4
21:55 1004 29.65 833 24.6 7.8 46 41 -4.8 23.4
22:00 1004 29.65 833 24.6 7.9 46.2 41 -4.5 23.9
22:05 1004 29.65 833 24.6 7.7 45.9 42 -4.2 24.4
22:10 1004 29.65 834 24.63 7.6 45.7 44 -3.8 25.2
22:15 1005 29.68 834 24.63 7.1 44.8 58 -0.5 31.1
22:20 1006 29.71 835 24.66 4.3 39.7 73 -0.2 31.6
22:25 1006 29.71 835 24.66 2.8 37 82 0.1 32.2
22:30 1006 29.71 835 24.66 1.6 34.9 88 -0.1 31.9
22:35 1006 29.71 836 24.69 1 33.9 91 -0.2 31.6
22:40 1007 29.74 836 24.69 0.8 33.5 92 -0.3 31.4
22:45 1007 29.74 836 24.69 0.7 33.2 93 -0.4 31.4
22:50 1007 29.74 836 24.69 0.6 33.1 93 -0.4 31.4
22:55 1007 29.74 836 24.69 0.4 32.8 94 -0.4 31.2
23:00 1007 29.74 836 24.69 0.3 32.6 95 -0.5 31.2
23:05 1007 29.74 836 24.69 0.3 32.5 95 -0.5 31.2
23:10 1007 29.74 836 24.69 0.2 32.4 95 -0.5 31.2
23:15 1007 29.74 836 24.69 0.2 32.3 96 -0.5 31.1
23:20 1007 29.74 836 24.69 0.1 32.2 96 -0.5 31.1
23:25 1007 29.74 836 24.69 0.1 32.2 96 -0.5 31.1
23:30 1007 29.74 836 24.69 0.1 32.2 96 -0.5 31.1
23:35 1007 29.74 836 24.69 0.1 32.2 96 -0.5 31.1
23:40 1007 29.74 836 24.69 0.1 32.1 96 -0.5 31.1
23:45 1007 29.74 836 24.69 0 32.1 96 -0.5 31.1
23:50 1007 29.74 836 24.69 0 32 96 -0.5 31
23:55 1007 29.74 836 24.69 0 32 96 -0.5 31
24:00 1007 29.74 836 24.69 0 32 96 -0.5 31.1